Time;durP1;ratioP1;P1;durP2;ratioP2;P2;SDS_P1;SDS_P2;PMS_P1;PMS_P2;Temp;Humidity;BMP_temperature;BMP_pressure;BME280_temperature;BME280_humidity;BME280_pressure;Samples;Min_cycle;Max_cycle;Signal;HPM_P1;HPM_P2
2021/06/04 00:00:19;;;;;;;5.75;5.25;;;18.70;90.10;;;;;;5073099;28;20233;-39
2021/06/04 00:02:47;;;;;;;6.45;5.95;;;18.60;90.40;;;;;;5073121;28;20213;-40
2021/06/04 00:05:18;;;;;;;6.47;5.88;;;18.60;90.60;;;;;;5072661;28;20243;-40
2021/06/04 00:07:46;;;;;;;6.10;5.50;;;18.60;90.90;;;;;;5072764;28;20222;-40
2021/06/04 00:10:18;;;;;;;6.68;6.05;;;18.50;91.10;;;;;;5072927;28;20298;-42
2021/06/04 00:12:50;;;;;;;6.15;5.65;;;18.50;91.40;;;;;;5072944;28;20290;-41
2021/06/04 00:15:24;;;;;;;6.45;5.85;;;18.40;91.60;;;;;;5072666;28;20203;-41
2021/06/04 00:17:52;;;;;;;6.20;5.60;;;18.40;91.80;;;;;;5072714;28;20203;-39
2021/06/04 00:20:24;;;;;;;6.45;5.82;;;18.30;92.00;;;;;;5072476;28;20235;-41
2021/06/04 00:22:53;;;;;;;6.68;5.65;;;18.30;92.20;;;;;;5072699;28;20302;-39
2021/06/04 00:25:21;;;;;;;8.05;6.47;;;18.30;92.40;;;;;;5072613;28;20242;-40
2021/06/04 00:27:51;;;;;;;6.22;5.63;;;18.20;92.60;;;;;;5073599;28;20207;-40
2021/06/04 00:30:21;;;;;;;6.55;5.78;;;18.20;92.70;;;;;;5072252;28;20275;-39
2021/06/04 00:32:49;;;;;;;6.72;6.05;;;18.20;92.90;;;;;;5072168;28;20744;-39
2021/06/04 00:35:17;;;;;;;6.65;5.97;;;18.20;93.00;;;;;;5072595;28;20203;-38
2021/06/04 00:37:45;;;;;;;6.65;6.13;;;18.20;93.10;;;;;;5072406;28;20254;-39
2021/06/04 00:40:16;;;;;;;7.63;6.82;;;18.20;93.30;;;;;;5072131;28;20265;-39
2021/06/04 00:42:44;;;;;;;6.65;6.07;;;18.20;93.50;;;;;;5072367;28;20218;-39
2021/06/04 00:45:16;;;;;;;6.35;5.75;;;18.20;93.60;;;;;;5072180;28;20302;-40
2021/06/04 00:47:45;;;;;;;7.68;5.93;;;18.10;93.80;;;;;;5072080;28;20207;-41
2021/06/04 00:50:23;;;;;;;6.95;5.80;;;18.10;93.90;;;;;;5072344;28;20250;-39
2021/06/04 00:52:50;;;;;;;6.63;6.03;;;18.10;94.00;;;;;;5072180;28;20237;-38
2021/06/04 00:55:21;;;;;;;6.47;5.93;;;18.10;94.10;;;;;;5072033;28;20219;-38
2021/06/04 00:57:49;;;;;;;6.60;6.00;;;18.10;94.20;;;;;;5072091;28;20243;-40
2021/06/04 01:00:23;;;;;;;6.85;6.18;;;18.10;94.30;;;;;;5072168;28;20318;-38
2021/06/04 01:02:56;;;;;;;6.97;6.35;;;18.10;94.50;;;;;;5078133;28;20216;-41
2021/06/04 01:05:30;;;;;;;6.90;6.22;;;18.10;94.60;;;;;;5077580;28;20604;-40
2021/06/04 01:08:13;;;;;;;7.43;6.22;;;18.10;94.70;;;;;;5071848;28;20741;-39
2021/06/04 01:11:00;;;;;;;6.68;5.97;;;18.10;94.90;;;;;;5072265;28;20573;-40
2021/06/04 01:13:31;;;;;;;6.65;6.05;;;18.10;95.00;;;;;;5071642;28;20229;-40
2021/06/04 01:16:06;;;;;;;6.32;5.80;;;18.10;95.10;;;;;;5071867;28;20227;-40
2021/06/04 01:18:49;;;;;;;6.88;6.13;;;18.10;95.20;;;;;;5071895;28;20246;-40
2021/06/04 01:21:26;;;;;;;7.05;6.35;;;18.10;95.30;;;;;;5072005;28;20234;-46
2021/06/04 01:24:06;;;;;;;8.07;6.75;;;18.10;95.30;;;;;;5071916;28;20209;-39
2021/06/04 01:26:38;;;;;;;6.38;5.80;;;18.20;95.40;;;;;;5071774;28;20349;-39
2021/06/04 01:29:10;;;;;;;8.95;6.25;;;18.20;95.50;;;;;;5071504;28;20297;-38
2021/06/04 01:31:41;;;;;;;9.27;7.38;;;18.20;95.50;;;;;;5071712;28;20227;-39
2021/06/04 01:34:12;;;;;;;8.43;7.63;;;18.20;95.50;;;;;;5071725;28;20203;-43
2021/06/04 01:36:42;;;;;;;7.85;6.75;;;18.30;95.60;;;;;;5071524;28;20737;-39
2021/06/04 01:39:13;;;;;;;8.48;7.18;;;18.30;95.50;;;;;;5071626;28;20658;-40
2021/06/04 01:41:46;;;;;;;6.72;6.22;;;18.30;95.50;;;;;;5071551;28;20233;-40
2021/06/04 01:44:19;;;;;;;6.45;5.95;;;18.30;95.50;;;;;;5071738;28;20207;-39
2021/06/04 01:46:51;;;;;;;7.03;6.43;;;18.30;95.50;;;;;;5071762;28;20208;-39
2021/06/04 01:49:25;;;;;;;6.93;6.10;;;18.30;95.40;;;;;;5071648;28;20219;-39
2021/06/04 01:51:55;;;;;;;7.53;6.82;;;18.30;95.30;;;;;;5071477;28;20294;-40
2021/06/04 01:54:28;;;;;;;7.00;6.30;;;18.40;95.20;;;;;;5071715;28;20207;-40
2021/06/04 01:57:01;;;;;;;8.80;6.60;;;18.40;95.20;;;;;;5071580;28;20207;-41
2021/06/04 01:59:32;;;;;;;7.30;6.80;;;18.40;95.20;;;;;;5071669;28;20258;-40
2021/06/04 02:02:01;;;;;;;7.22;6.53;;;18.40;95.20;;;;;;5070502;28;20701;-40
2021/06/04 02:04:32;;;;;;;7.43;6.78;;;18.40;95.20;;;;;;5071331;28;20211;-40
2021/06/04 02:07:00;;;;;;;7.75;6.60;;;18.40;95.20;;;;;;5071240;28;20288;-39
2021/06/04 02:09:28;;;;;;;7.32;6.63;;;18.40;95.60;;;;;;5071639;28;20211;-40
2021/06/04 02:11:58;;;;;;;8.95;7.15;;;18.40;95.40;;;;;;5071481;28;20517;-40
2021/06/04 02:14:28;;;;;;;6.82;6.22;;;18.40;95.40;;;;;;5071443;28;20280;-40
2021/06/04 02:17:18;;;;;;;7.55;6.32;;;18.40;95.50;;;;;;5071376;28;20218;-39
2021/06/04 02:19:56;;;;;;;7.30;6.32;;;18.40;95.60;;;;;;5071302;28;20212;-38
2021/06/04 02:22:29;;;;;;;8.23;6.80;;;18.30;95.60;;;;;;5071494;28;20234;-38
2021/06/04 02:25:03;;;;;;;6.85;6.15;;;18.40;95.70;;;;;;5071412;28;20239;-38
2021/06/04 02:27:37;;;;;;;7.95;6.05;;;18.30;95.70;;;;;;5074643;28;20574;-38
2021/06/04 02:30:16;;;;;;;8.30;6.57;;;18.30;95.80;;;;;;5074930;28;20210;-39
2021/06/04 02:32:50;;;;;;;7.35;6.75;;;18.30;95.90;;;;;;5074988;28;20211;-40
2021/06/04 02:35:26;;;;;;;7.68;7.00;;;18.30;96.00;;;;;;5074883;28;20298;-40
2021/06/04 02:37:58;;;;;;;7.82;7.13;;;18.20;96.20;;;;;;5074623;28;20638;-39
2021/06/04 02:40:30;;;;;;;9.20;8.50;;;18.20;96.40;;;;;;5074515;28;20227;-39
2021/06/04 02:43:02;;;;;;;8.98;8.10;;;18.10;96.70;;;;;;5074724;28;20310;-39
2021/06/04 02:45:34;;;;;;;9.18;8.52;;;18.10;97.00;;;;;;5074773;28;20211;-39
2021/06/04 02:48:08;;;;;;;10.20;9.40;;;18.00;97.20;;;;;;5074360;28;20320;-38
2021/06/04 02:50:38;;;;;;;10.30;9.25;;;18.00;97.50;;;;;;5074272;28;20216;-38
2021/06/04 02:53:19;;;;;;;10.50;9.35;;;18.00;97.70;;;;;;5074643;28;20207;-38
2021/06/04 02:56:06;;;;;;;9.85;8.82;;;18.00;98.10;;;;;;5074252;28;20290;-39
2021/06/04 02:58:35;;;;;;;10.02;9.18;;;18.00;98.40;;;;;;5074160;28;20641;-37
2021/06/04 03:01:04;;;;;;;10.65;9.57;;;17.90;98.60;;;;;;5074220;28;20310;-37
2021/06/04 03:03:31;;;;;;;10.80;9.85;;;17.90;98.90;;;;;;5074199;28;20273;-37
2021/06/04 03:05:59;;;;;;;10.68;9.68;;;17.90;99.10;;;;;;5074068;28;20568;-37
2021/06/04 03:08:30;;;;;;;10.05;9.15;;;17.90;99.30;;;;;;5074000;28;20207;-37
2021/06/04 03:10:57;;;;;;;10.48;9.48;;;17.80;99.50;;;;;;5074173;28;20227;-38
2021/06/04 03:13:27;;;;;;;10.85;9.02;;;17.80;99.60;;;;;;5073799;28;20733;-38
2021/06/04 03:16:00;;;;;;;10.57;9.13;;;17.90;99.60;;;;;;5074246;28;20298;-38
2021/06/04 03:18:30;;;;;;;10.45;9.35;;;17.90;99.50;;;;;;5073950;28;20578;-38
2021/06/04 03:20:59;;;;;;;11.88;9.63;;;17.90;99.80;;;;;;5073823;28;20500;-38
2021/06/04 03:23:35;;;;;;;9.98;9.02;;;18.00;99.40;;;;;;5073453;28;20207;-39
2021/06/04 03:26:07;;;;;;;9.18;8.40;;;18.00;99.40;;;;;;5073581;28;20302;-38
2021/06/04 03:28:35;;;;;;;9.00;8.30;;;18.00;99.20;;;;;;5073560;28;20211;-38
2021/06/04 03:31:06;;;;;;;8.38;7.50;;;18.10;99.10;;;;;;5073623;28;20302;-38
2021/06/04 03:33:35;;;;;;;7.63;6.93;;;18.10;98.90;;;;;;5073530;28;20230;-38
2021/06/04 03:36:06;;;;;;;7.43;6.75;;;18.10;98.80;;;;;;5073274;28;20207;-38
2021/06/04 03:38:33;;;;;;;7.68;6.90;;;18.10;98.60;;;;;;5073445;28;20211;-38
2021/06/04 03:41:01;;;;;;;8.88;8.05;;;18.10;98.60;;;;;;5073274;28;20563;-39
2021/06/04 03:43:29;;;;;;;8.00;7.30;;;18.10;98.60;;;;;;5073367;28;20294;-39
2021/06/04 03:45:57;;;;;;;8.13;7.35;;;18.10;98.60;;;;;;5073365;28;20211;-39
2021/06/04 03:48:30;;;;;;;8.13;6.38;;;18.20;98.60;;;;;;5073231;28;20682;-39
2021/06/04 03:51:01;;;;;;;8.40;7.55;;;18.20;98.60;;;;;;5073152;28;20203;-39
2021/06/04 03:53:28;;;;;;;7.75;7.15;;;18.20;98.50;;;;;;5073287;28;20738;-39
2021/06/04 03:55:57;;;;;;;7.80;6.85;;;18.20;98.50;;;;;;5073249;28;20214;-40
2021/06/04 03:58:27;;;;;;;8.40;7.60;;;18.10;98.40;;;;;;5073420;28;20203;-39
2021/06/04 04:00:57;;;;;;;8.23;7.53;;;18.20;98.40;;;;;;5072846;28;20536;-39
2021/06/04 04:03:27;;;;;;;7.38;6.82;;;18.20;98.40;;;;;;5072736;28;20315;-39
2021/06/04 04:05:55;;;;;;;9.32;8.52;;;18.30;98.40;;;;;;5072514;28;20235;-40
2021/06/04 04:08:28;;;;;;;7.47;6.88;;;18.30;98.40;;;;;;5072608;28;20207;-41
2021/06/04 04:10:57;;;;;;;7.82;7.18;;;18.30;98.40;;;;;;5072998;28;20207;-39
2021/06/04 04:13:26;;;;;;;9.63;7.15;;;18.30;98.40;;;;;;5072751;28;20302;-39
2021/06/04 04:15:55;;;;;;;7.43;6.72;;;18.40;98.30;;;;;;5072620;28;20207;-39
2021/06/04 04:18:23;;;;;;;8.45;7.22;;;18.40;98.30;;;;;;5072527;28;20207;-39
2021/06/04 04:20:55;;;;;;;9.85;6.68;;;18.40;98.20;;;;;;5072331;28;20721;-39
2021/06/04 04:23:26;;;;;;;8.65;6.70;;;18.40;98.10;;;;;;5072654;28;20215;-40
2021/06/04 04:25:54;;;;;;;7.05;6.25;;;18.50;97.90;;;;;;5072703;28;20217;-40
2021/06/04 04:28:25;;;;;;;7.53;6.82;;;18.50;98.00;;;;;;5072591;28;20298;-39
2021/06/04 04:30:54;;;;;;;7.72;7.05;;;18.50;97.50;;;;;;5072444;28;20669;-39
2021/06/04 04:33:21;;;;;;;7.18;6.50;;;18.50;97.40;;;;;;5072548;28;20204;-39
2021/06/04 04:35:49;;;;;;;8.00;6.85;;;18.60;97.40;;;;;;5071991;28;20666;-39
2021/06/04 04:38:21;;;;;;;8.20;6.00;;;18.60;97.20;;;;;;5071889;28;20578;-40
2021/06/04 04:40:50;;;;;;;5.97;5.43;;;18.60;97.10;;;;;;5072536;28;20239;-39
2021/06/04 04:43:18;;;;;;;7.28;6.45;;;18.70;97.00;;;;;;5072370;28;20223;-40
2021/06/04 04:45:46;;;;;;;7.40;6.63;;;18.70;96.80;;;;;;5072528;28;20306;-42
2021/06/04 04:48:14;;;;;;;7.68;6.97;;;18.70;96.60;;;;;;5071752;28;20214;-39
2021/06/04 04:50:41;;;;;;;7.10;6.50;;;18.80;96.50;;;;;;5072574;28;20293;-39
2021/06/04 04:53:09;;;;;;;8.68;7.18;;;18.80;96.30;;;;;;5072172;28;20290;-39
2021/06/04 04:55:40;;;;;;;7.55;6.90;;;18.90;96.20;;;;;;5072318;28;20211;-39
2021/06/04 04:58:08;;;;;;;7.13;6.45;;;18.90;96.20;;;;;;5072169;28;20207;-39
2021/06/04 05:00:37;;;;;;;8.10;7.38;;;18.90;96.10;;;;;;5072080;28;20218;-40
2021/06/04 05:03:07;;;;;;;9.10;8.20;;;19.00;96.20;;;;;;5071811;28;20225;-39
2021/06/04 05:05:36;;;;;;;10.55;8.15;;;19.10;96.10;;;;;;5071754;28;20286;-39
2021/06/04 05:08:04;;;;;;;9.13;8.00;;;19.10;96.00;;;;;;5071859;28;20310;-39
2021/06/04 05:10:32;;;;;;;9.20;8.40;;;19.20;96.10;;;;;;5071598;28;20199;-40
2021/06/04 05:13:01;;;;;;;9.60;8.68;;;19.20;96.00;;;;;;5071695;28;20297;-40
2021/06/04 05:15:32;;;;;;;9.75;8.40;;;19.30;96.10;;;;;;5071981;28;20298;-42
2021/06/04 05:18:00;;;;;;;9.23;8.18;;;19.30;96.40;;;;;;5071868;28;20647;-40
2021/06/04 05:20:27;;;;;;;10.30;9.32;;;19.30;96.40;;;;;;5071835;28;20207;-39
2021/06/04 05:22:55;;;;;;;10.07;9.07;;;19.30;96.10;;;;;;5071733;28;20697;-40
2021/06/04 05:25:27;;;;;;;10.30;9.50;;;19.40;96.20;;;;;;5071698;28;20302;-37
2021/06/04 05:27:55;;;;;;;10.43;9.43;;;19.40;96.30;;;;;;5071855;28;20700;-39
2021/06/04 05:30:27;;;;;;;8.65;8.05;;;19.40;96.30;;;;;;5071989;28;20211;-39
2021/06/04 05:32:55;;;;;;;9.95;8.93;;;19.40;96.40;;;;;;5071764;28;20207;-40
2021/06/04 05:35:24;;;;;;;9.45;8.57;;;19.40;96.40;;;;;;5072013;28;20241;-40
2021/06/04 05:37:52;;;;;;;9.55;8.73;;;19.40;96.40;;;;;;5071983;28;20298;-39
2021/06/04 05:40:27;;;;;;;9.15;8.23;;;19.40;96.40;;;;;;5071836;28;20213;-38
2021/06/04 05:42:55;;;;;;;9.45;8.50;;;19.50;96.40;;;;;;5071800;28;20226;-40
2021/06/04 05:45:28;;;;;;;10.30;9.18;;;19.50;96.40;;;;;;5071666;28;20219;-40
2021/06/04 05:47:56;;;;;;;9.43;8.63;;;19.40;96.50;;;;;;5071831;28;20294;-39
2021/06/04 05:50:28;;;;;;;10.07;8.38;;;19.40;96.70;;;;;;5071804;28;20257;-40
2021/06/04 05:52:55;;;;;;;10.88;9.77;;;19.40;96.80;;;;;;5071825;28;20203;-41
2021/06/04 05:55:26;;;;;;;9.82;8.82;;;19.40;96.90;;;;;;5071699;28;20210;-40
2021/06/04 05:57:54;;;;;;;10.32;9.30;;;19.40;96.90;;;;;;5071835;28;20218;-45
2021/06/04 06:00:26;;;;;;;10.57;9.48;;;19.40;96.90;;;;;;5073290;28;20215;-42
2021/06/04 06:02:55;;;;;;;10.18;9.20;;;19.40;96.90;;;;;;5075196;28;20300;-39
2021/06/04 06:05:24;;;;;;;12.75;9.52;;;19.50;96.80;;;;;;5075272;28;20243;-39
2021/06/04 06:07:53;;;;;;;10.68;9.68;;;19.60;96.80;;;;;;5075086;28;20218;-40
2021/06/04 06:10:22;;;;;;;10.90;9.52;;;19.70;96.80;;;;;;5075022;28;20298;-39
2021/06/04 06:12:50;;;;;;;10.45;9.52;;;19.80;96.70;;;;;;5075155;28;20282;-38
2021/06/04 06:15:18;;;;;;;10.80;9.70;;;19.90;96.60;;;;;;5078589;28;20670;-40
2021/06/04 06:17:52;;;;;;;9.30;8.50;;;20.00;96.60;;;;;;5075008;28;20674;-39
2021/06/04 06:20:22;;;;;;;10.15;9.15;;;20.00;96.50;;;;;;5074855;28;20210;-40
2021/06/04 06:22:51;;;;;;;10.85;9.85;;;20.10;96.50;;;;;;5074689;28;20230;-39
2021/06/04 06:25:25;;;;;;;11.00;9.57;;;20.10;96.50;;;;;;5074661;28;20258;-39
2021/06/04 06:27:52;;;;;;;10.45;9.55;;;20.20;96.60;;;;;;5074657;28;20298;-39
2021/06/04 06:30:22;;;;;;;10.98;9.95;;;20.20;96.50;;;;;;5074638;28;20214;-38
2021/06/04 06:32:51;;;;;;;11.32;10.18;;;20.30;96.50;;;;;;5074502;28;20209;-38
2021/06/04 06:35:24;;;;;;;11.10;10.10;;;20.40;96.50;;;;;;5074239;28;20210;-39
2021/06/04 06:37:51;;;;;;;12.20;11.07;;;20.50;96.40;;;;;;5074476;28;20207;-39
2021/06/04 06:40:19;;;;;;;12.80;9.63;;;20.60;96.30;;;;;;5074698;28;20301;-39
2021/06/04 06:42:46;;;;;;;11.10;9.55;;;20.70;96.20;;;;;;5074410;28;20242;-40
2021/06/04 06:45:15;;;;;;;11.80;10.70;;;20.80;96.10;;;;;;5074409;28;20214;-41
2021/06/04 06:47:42;;;;;;;11.82;10.85;;;20.80;96.00;;;;;;5074352;28;20243;-39
2021/06/04 06:50:13;;;;;;;11.60;10.50;;;20.90;96.00;;;;;;5074055;28;20208;-41
2021/06/04 06:52:40;;;;;;;11.75;10.55;;;21.00;95.90;;;;;;5074326;28;20203;-40
2021/06/04 06:55:09;;;;;;;15.85;11.02;;;21.10;95.80;;;;;;5074247;28;20298;-40
2021/06/04 06:57:37;;;;;;;17.30;11.10;;;21.20;95.70;;;;;;5074186;28;20213;-40
2021/06/04 07:00:08;;;;;;;10.57;9.48;;;21.20;95.60;;;;;;5073994;28;20744;-40
2021/06/04 07:02:36;;;;;;;9.18;8.30;;;21.20;95.50;;;;;;5073863;28;20249;-39
2021/06/04 07:05:04;;;;;;;9.43;8.63;;;21.20;95.30;;;;;;5073794;28;20721;-39
2021/06/04 07:07:33;;;;;;;10.55;9.55;;;21.20;95.20;;;;;;5075784;28;20337;-40
2021/06/04 07:10:01;;;;;;;9.75;8.90;;;21.20;95.00;;;;;;5074234;28;20207;-40
2021/06/04 07:12:28;;;;;;;9.85;8.85;;;21.30;95.10;;;;;;5072979;28;20657;-40
2021/06/04 07:14:56;;;;;;;10.95;8.88;;;21.30;95.00;;;;;;5073712;28;20214;-40
2021/06/04 07:17:24;;;;;;;10.70;9.80;;;21.30;95.00;;;;;;5074168;28;20298;-40
2021/06/04 07:19:51;;;;;;;9.23;8.52;;;21.40;95.00;;;;;;5074876;28;20203;-41
2021/06/04 07:22:19;;;;;;;10.20;9.30;;;21.40;95.20;;;;;;5073757;28;20227;-41
2021/06/04 07:24:48;;;;;;;10.55;9.52;;;21.50;94.90;;;;;;5073648;28;20290;-40
2021/06/04 07:27:15;;;;;;;10.15;9.10;;;21.50;94.90;;;;;;5073635;28;20306;-40
2021/06/04 07:29:43;;;;;;;10.32;9.43;;;21.50;94.90;;;;;;5073637;28;20302;-39
2021/06/04 07:32:10;;;;;;;10.40;9.45;;;21.50;94.80;;;;;;5073243;28;20737;-39
2021/06/04 07:34:38;;;;;;;11.40;10.43;;;21.60;94.80;;;;;;5073112;28;20299;-39
2021/06/04 07:37:05;;;;;;;10.50;9.48;;;21.70;94.70;;;;;;5073338;28;20211;-39
2021/06/04 07:39:35;;;;;;;13.52;11.07;;;21.70;94.70;;;;;;5073217;28;20214;-39
2021/06/04 07:42:06;;;;;;;11.07;9.95;;;21.70;94.70;;;;;;5073156;28;20319;-40
2021/06/04 07:44:34;;;;;;;12.10;10.00;;;21.80;94.80;;;;;;5073220;28;20298;-40
2021/06/04 07:47:02;;;;;;;10.88;9.98;;;21.90;94.70;;;;;;5073360;28;20207;-40
2021/06/04 07:49:30;;;;;;;10.82;9.93;;;22.00;94.70;;;;;;5073042;28;20302;-39
2021/06/04 07:51:59;;;;;;;10.32;9.43;;;22.00;94.60;;;;;;5073087;28;20570;-40
2021/06/04 07:54:29;;;;;;;11.10;9.10;;;22.10;94.60;;;;;;5072694;28;20203;-40
2021/06/04 07:56:57;;;;;;;9.65;8.85;;;22.10;94.60;;;;;;5072973;28;20215;-40
2021/06/04 07:59:26;;;;;;;11.38;10.30;;;22.10;94.50;;;;;;5072900;28;20246;-39
2021/06/04 08:01:54;;;;;;;11.13;10.00;;;22.30;94.50;;;;;;5072836;28;20290;-40
2021/06/04 08:04:22;;;;;;;10.60;9.65;;;22.40;94.40;;;;;;5072877;28;20210;-39
2021/06/04 08:06:51;;;;;;;11.25;10.25;;;22.40;94.30;;;;;;5072647;28;20322;-42
2021/06/04 08:09:19;;;;;;;10.68;9.68;;;22.40;94.30;;;;;;5072549;28;20302;-40
2021/06/04 08:11:52;;;;;;;12.27;11.07;;;22.50;94.30;;;;;;5072739;28;20211;-40
2021/06/04 08:14:22;;;;;;;11.18;9.77;;;22.70;94.20;;;;;;5072776;28;20207;-40
2021/06/04 08:16:53;;;;;;;10.52;9.52;;;22.70;94.10;;;;;;5072654;28;20207;-40
2021/06/04 08:19:22;;;;;;;10.63;9.57;;;22.90;94.00;;;;;;5072434;28;20207;-42
2021/06/04 08:21:52;;;;;;;11.38;10.27;;;23.00;93.80;;;;;;5071973;28;20213;-39
2021/06/04 08:24:22;;;;;;;11.45;10.43;;;23.10;93.70;;;;;;5071473;28;20217;-40
2021/06/04 08:26:50;;;;;;;11.00;10.18;;;23.10;93.60;;;;;;5072570;28;20302;-43
2021/06/04 08:29:19;;;;;;;12.80;10.32;;;23.20;93.60;;;;;;5072296;28;20211;-41
2021/06/04 08:31:46;;;;;;;11.07;10.18;;;23.30;93.60;;;;;;5071941;28;20588;-40
2021/06/04 08:34:16;;;;;;;10.68;9.57;;;23.40;93.50;;;;;;5071882;28;20565;-41
2021/06/04 08:36:45;;;;;;;11.18;10.25;;;23.50;93.30;;;;;;5072015;28;20680;-40
2021/06/04 08:39:16;;;;;;;9.82;8.82;;;23.70;93.20;;;;;;5072341;28;20207;-40
2021/06/04 08:41:53;;;;;;;10.10;8.88;;;23.80;92.90;;;;;;5072126;28;20574;-39
2021/06/04 08:44:32;;;;;;;10.60;9.60;;;24.10;92.80;;;;;;5071976;28;20203;-40
2021/06/04 08:47:02;;;;;;;11.10;10.00;;;24.20;92.40;;;;;;5071962;28;20289;-40
2021/06/04 08:49:41;;;;;;;11.27;10.18;;;24.20;92.70;;;;;;5072210;28;20211;-40
2021/06/04 08:52:20;;;;;;;10.60;9.57;;;24.20;92.30;;;;;;5071817;28;20240;-40
2021/06/04 08:54:58;;;;;;;10.60;9.60;;;24.20;92.20;;;;;;5071901;28;20211;-41
2021/06/04 08:57:41;;;;;;;11.52;10.18;;;24.30;92.10;;;;;;5071755;28;20207;-40
2021/06/04 09:00:12;;;;;;;10.15;9.15;;;24.30;92.00;;;;;;5071560;28;20271;-41
2021/06/04 09:02:44;;;;;;;10.90;9.43;;;24.40;91.90;;;;;;5071624;28;20314;-42
2021/06/04 09:05:16;;;;;;;10.90;9.80;;;24.60;91.80;;;;;;5071679;28;20240;-40
2021/06/04 09:07:46;;;;;;;10.95;9.90;;;24.70;91.60;;;;;;5071731;28;20525;-41
2021/06/04 09:10:16;;;;;;;11.10;10.10;;;24.80;91.50;;;;;;5071884;28;20302;-40
2021/06/04 09:12:48;;;;;;;10.27;9.30;;;24.90;91.40;;;;;;5071467;28;20203;-41
2021/06/04 09:15:32;;;;;;;11.57;10.38;;;25.00;91.20;;;;;;5071754;28;20247;-42
2021/06/04 09:18:05;;;;;;;11.35;9.88;;;25.00;91.00;;;;;;5071086;28;20210;-41
2021/06/04 09:20:43;;;;;;;11.20;10.20;;;25.20;90.80;;;;;;5071293;28;20736;-40
2021/06/04 09:23:13;;;;;;;10.65;9.65;;;25.50;90.50;;;;;;5071488;28;20237;-41
2021/06/04 09:25:42;;;;;;;10.38;9.38;;;25.70;90.20;;;;;;5071598;28;20210;-41
2021/06/04 09:28:31;;;;;;;10.82;9.73;;;25.70;90.40;;;;;;5071332;28;20203;-41
2021/06/04 09:31:00;;;;;;;10.75;9.73;;;25.80;89.50;;;;;;5071097;28;20662;-41
2021/06/04 09:33:33;;;;;;;10.20;9.40;;;25.90;89.10;;;;;;5071314;28;20210;-41
2021/06/04 09:36:07;;;;;;;10.75;9.75;;;26.00;88.80;;;;;;5074350;28;20214;-42
2021/06/04 09:38:39;;;;;;;9.80;8.90;;;25.90;88.40;;;;;;5075456;28;20206;-41
2021/06/04 09:41:26;;;;;;;10.23;9.43;;;25.90;87.90;;;;;;5075409;28;20298;-40
2021/06/04 09:44:05;;;;;;;11.43;9.00;;;25.90;87.80;;;;;;5075441;28;20231;-41
2021/06/04 09:46:40;;;;;;;11.88;8.18;;;25.90;87.90;;;;;;5075305;28;20207;-41
2021/06/04 09:49:08;;;;;;;11.23;9.73;;;26.00;87.60;;;;;;5075030;28;20210;-40
2021/06/04 09:51:39;;;;;;;11.20;10.10;;;26.00;86.90;;;;;;5075501;28;20293;-40
2021/06/04 09:54:23;;;;;;;9.52;8.73;;;25.90;86.60;;;;;;5075206;28;20212;-43
2021/06/04 09:57:03;;;;;;;8.93;8.23;;;25.80;86.70;;;;;;5075324;28;20265;-41
2021/06/04 09:59:31;;;;;;;10.00;9.20;;;25.70;87.00;;;;;;5074793;28;20207;-40
2021/06/04 10:01:58;;;;;;;12.10;9.32;;;25.70;86.90;;;;;;5074951;28;20207;-41
2021/06/04 10:04:30;;;;;;;8.68;7.97;;;25.60;86.80;;;;;;5074912;28;20723;-41
2021/06/04 10:07:04;;;;;;;10.85;8.73;;;25.60;86.20;;;;;;5074448;28;20329;-39
2021/06/04 10:09:40;;;;;;;9.25;8.45;;;25.70;85.50;;;;;;5079751;28;20232;-39
2021/06/04 10:12:15;;;;;;;8.52;7.75;;;25.80;84.90;;;;;;5074871;28;20207;-39
2021/06/04 10:14:50;;;;;;;8.80;8.00;;;25.80;84.70;;;;;;5075009;28;20211;-40
2021/06/04 10:17:47;;;;;;;8.95;8.15;;;25.70;84.80;;;;;;5075080;28;20240;-40
2021/06/04 10:20:40;;;;;;;8.55;7.53;;;25.70;84.80;;;;;;5072597;28;20385;-40
2021/06/04 10:23:21;;;;;;;8.85;8.15;;;25.80;84.30;;;;;;5072943;28;20249;-39
2021/06/04 10:25:54;;;;;;;8.52;7.88;;;25.90;84.10;;;;;;5074691;28;20579;-39
2021/06/04 10:28:39;;;;;;;8.32;7.72;;;25.90;84.10;;;;;;5074847;28;20242;-40
2021/06/04 10:31:26;;;;;;;7.43;6.80;;;25.90;84.10;;;;;;5074678;28;20333;-40
2021/06/04 10:34:01;;;;;;;7.53;6.93;;;26.00;83.50;;;;;;5075075;28;20246;-40
2021/06/04 10:36:33;;;;;;;12.90;7.57;;;26.00;83.10;;;;;;5074595;28;20625;-39
2021/06/04 10:39:07;;;;;;;8.30;7.50;;;26.00;82.90;;;;;;5074523;28;20646;-40
2021/06/04 10:41:44;;;;;;;8.57;7.88;;;26.00;82.70;;;;;;5074493;28;20309;-40
2021/06/04 10:44:19;;;;;;;9.57;7.60;;;26.00;82.50;;;;;;5074113;28;20587;-39
2021/06/04 10:46:52;;;;;;;7.68;6.97;;;26.00;82.70;;;;;;5073316;28;20236;-43
2021/06/04 10:49:50;;;;;;;8.55;7.00;;;25.90;82.20;;;;;;5074492;28;20659;-40
2021/06/04 10:52:25;;;;;;;6.47;5.82;;;25.90;81.90;;;;;;5059770;28;20207;-40
2021/06/04 10:55:06;;;;;;;7.30;5.75;;;25.90;81.30;;;;;;5074278;28;20290;-39
2021/06/04 10:57:38;;;;;;;6.53;4.75;;;26.00;80.10;;;;;;5074329;28;20329;-40
2021/06/04 11:00:11;;;;;;;6.32;5.82;;;26.10;79.30;;;;;;5074164;28;20642;-40
2021/06/04 11:02:46;;;;;;;6.55;5.93;;;26.20;78.30;;;;;;5074542;28;20221;-43
2021/06/04 11:05:27;;;;;;;6.47;5.70;;;26.20;78.30;;;;;;5073838;28;20238;-40
2021/06/04 11:08:00;;;;;;;8.30;4.95;;;26.20;78.60;;;;;;5073898;28;20310;-40
2021/06/04 11:10:43;;;;;;;7.72;7.03;;;26.20;77.70;;;;;;5073962;28;20615;-40
2021/06/04 11:13:27;;;;;;;5.72;5.20;;;26.30;76.40;;;;;;5074062;28;20199;-40
2021/06/04 11:15:59;;;;;;;6.22;5.72;;;26.40;75.70;;;;;;5074284;28;20286;-40
2021/06/04 11:18:42;;;;;;;6.82;6.22;;;26.50;75.60;;;;;;5074162;28;20215;-40
2021/06/04 11:21:22;;;;;;;8.82;5.65;;;26.50;75.00;;;;;;5074267;28;20214;-40
2021/06/04 11:23:54;;;;;;;6.30;5.70;;;26.40;75.30;;;;;;5074058;28;20231;-41
2021/06/04 11:26:28;;;;;;;6.00;5.60;;;26.50;74.80;;;;;;5073703;28;20298;-40
2021/06/04 11:29:02;;;;;;;9.32;6.75;;;26.60;73.90;;;;;;5073744;28;20302;-49
2021/06/04 11:31:47;;;;;;;7.45;6.03;;;26.80;73.90;;;;;;5073874;28;20313;-40
2021/06/04 11:34:27;;;;;;;6.07;5.57;;;26.90;74.00;;;;;;5073895;28;20327;-40
2021/06/04 11:36:57;;;;;;;8.10;6.60;;;26.90;73.70;;;;;;5073759;28;20310;-41
2021/06/04 11:39:30;;;;;;;8.48;7.75;;;27.00;73.00;;;;;;5073385;28;20290;-42
2021/06/04 11:42:05;;;;;;;6.85;6.13;;;27.20;72.60;;;;;;5073568;28;20218;-42
2021/06/04 11:44:42;;;;;;;6.10;5.50;;;27.30;72.00;;;;;;5074202;28;20321;-41
2021/06/04 11:47:29;;;;;;;9.48;5.55;;;27.40;71.50;;;;;;5075019;28;20276;-41
2021/06/04 11:50:37;;;;;;;5.93;5.30;;;27.60;70.60;;;;;;5074652;28;20306;-41
2021/06/04 11:53:33;;;;;;;7.95;5.07;;;27.70;70.30;;;;;;5075072;28;20294;-41
2021/06/04 11:56:12;;;;;;;4.75;4.10;;;27.90;69.10;;;;;;5073183;28;20222;-40
2021/06/04 11:58:52;;;;;;;5.35;4.32;;;28.00;68.20;;;;;;5073202;28;20289;-41
2021/06/04 12:01:38;;;;;;;5.97;5.20;;;28.10;67.40;;;;;;5073790;28;20211;-41
2021/06/04 12:04:18;;;;;;;9.07;5.07;;;28.20;67.50;;;;;;5073867;28;20701;-46
2021/06/04 12:07:05;;;;;;;6.32;5.78;;;28.20;67.40;;;;;;5074213;28;20243;-43
2021/06/04 12:09:41;;;;;;;6.32;4.97;;;28.20;67.20;;;;;;5074150;28;20298;-40
2021/06/04 12:12:51;;;;;;;5.50;5.00;;;28.30;67.10;;;;;;5073563;28;20764;-40
2021/06/04 12:15:43;;;;;;;5.97;5.45;;;28.50;66.70;;;;;;5074127;28;20262;-41
2021/06/04 12:18:48;;;;;;;6.70;5.22;;;28.40;66.90;;;;;;5074280;28;20218;-42
2021/06/04 12:22:05;;;;;;;6.57;5.32;;;28.40;66.20;;;;;;5073667;28;20298;-39
2021/06/04 12:24:54;;;;;;;6.93;4.50;;;28.30;66.40;;;;;;5073130;28;20318;-40
2021/06/04 12:27:46;;;;;;;6.32;4.00;;;28.40;66.50;;;;;;5073683;28;20207;-40
2021/06/04 12:30:47;;;;;;;4.07;3.75;;;28.60;64.20;;;;;;5074128;28;20298;-40
2021/06/04 12:33:31;;;;;;;6.93;3.65;;;28.50;64.50;;;;;;5073175;28;20633;-41
2021/06/04 12:35:59;;;;;;;3.65;3.30;;;28.40;64.10;;;;;;5073727;28;20214;-42
2021/06/04 12:38:32;;;;;;;6.00;3.20;;;28.20;65.00;;;;;;5073421;28;20214;-42
2021/06/04 12:41:00;;;;;;;11.15;4.35;;;28.00;65.10;;;;;;5072162;28;20765;-42
2021/06/04 12:43:31;;;;;;;6.57;3.10;;;27.70;66.70;;;;;;5072257;28;20207;-42
2021/06/04 12:46:02;;;;;;;6.43;3.28;;;27.10;69.50;;;;;;5072461;28;20594;-41
2021/06/04 12:48:33;;;;;;;7.80;2.75;;;26.30;72.00;;;;;;5072493;28;20203;-41
2021/06/04 12:51:20;;;;;;;5.70;2.33;;;25.70;73.40;;;;;;5072488;28;20258;-45
2021/06/04 12:53:50;;;;;;;4.95;2.17;;;25.20;74.40;;;;;;5072275;28;20227;-43
2021/06/04 12:56:21;;;;;;;3.45;2.33;;;24.80;75.60;;;;;;5072112;28;20212;-40
2021/06/04 12:58:53;;;;;;;3.33;2.63;;;24.50;76.50;;;;;;5072055;28;20204;-40
2021/06/04 13:01:26;;;;;;;2.72;1.80;;;24.30;77.00;;;;;;5071963;28;20246;-39
2021/06/04 13:03:56;;;;;;;3.33;1.83;;;24.20;77.70;;;;;;5071730;28;20219;-39
2021/06/04 13:06:33;;;;;;;2.22;1.70;;;23.90;78.20;;;;;;5071884;28;20323;-43
2021/06/04 13:09:01;;;;;;;5.13;2.15;;;23.70;78.20;;;;;;5071270;28;20661;-42
2021/06/04 13:11:36;;;;;;;3.72;2.53;;;23.40;79.00;;;;;;5071593;28;20246;-42